Jasper S — V2CQ4 — position and weather

sailwx.info

Track history (hours):
 
Tides and Currents Weather Stations Pressure Air Temp Water Temp Dewpoint Dewpoint Depression Visibility Wind Speed Wind Dir Waves Ship Positions

Jasper S

Last reported at 2016-Sep-17 09:06 UTC. Time now 2016-Sep-25 02:03 UTC.
Position N 43°08' E 005°01'.

Length 148 m; draft 8.8 m.

Type: Ship (hazmat cat A). MMSI: 305079000.

Date/timePositionNaut miles runAvg speedWind from/ knotsBaromVisibWave heightAir tempDewpointWater temp
2016-Sep-17 09:06N 43°08' E 005°01'814.0
2016-Sep-17 08:33N 43°16' E 004°60'1110.5
2016-Sep-17 07:32N 43°25' E 004°51'174 5.3
2016-Sep-15 22:32N 41°18' E 002°09'42 3.8
2016-Sep-15 11:24N 40°43' E 001°38'10214.1
2016-Sep-15 04:11N 39°35' W 000°02'914.2
2016-Sep-15 03:34N 39°29' W 000°11'7 1.5
2016-Sep-14 22:31N 39°26' W 000°20'0 0.0
2016-Sep-14 21:31N 39°26' W 000°20'0 0.0
2016-Sep-14 17:31N 39°26' W 000°20'0 0.0
2016-Sep-14 16:31N 39°26' W 000°20'1 0.2
2016-Sep-14 13:33N 39°26' W 000°19'3 1.0
2016-Sep-14 10:33N 39°24' W 000°16'0 0.0
2016-Sep-14 08:24N 39°24' W 000°16'0 0.0
2016-Sep-14 07:27N 39°24' W 000°16'3 0.2
2016-Sep-13 20:33N 39°26' W 000°18'1 0.3
2016-Sep-13 18:29N 39°26' W 000°19'0 0.0
2016-Sep-13 17:29N 39°26' W 000°19'0 0.0
2016-Sep-13 16:32N 39°26' W 000°19'0 0.0
2016-Sep-13 11:32N 39°26' W 000°19'0 0.0
2016-Sep-13 09:32N 39°26' W 000°19'0 0.0
2016-Sep-13 07:32N 39°26' W 000°19'0 0.0
2016-Sep-13 06:32N 39°26' W 000°19'0 0.0
2016-Sep-13 04:32N 39°26' W 000°19'8 4.0
2016-Sep-13 02:34N 39°23' W 000°10'12310.2
2016-Sep-12 14:33N 38°14' E 002°01'3114.0
2016-Sep-12 12:18N 37°58' E 002°35'  
Track history (hours):
 
Tides and Currents Weather Stations Pressure Air Temp Water Temp Dewpoint Dewpoint Depression Visibility Wind Speed Wind Dir Waves Ship Positions

Jasper S

Last reported at 2016-Sep-17 09:06 UTC. Time now 2016-Sep-25 02:03 UTC.
Position N 43°08' E 005°01'.

Length 148 m; draft 8.8 m.

Type: Ship (hazmat cat A). MMSI: 305079000.

Date/timePositionNaut miles runAvg speedWind from/ knotsBaromVisibWave heightAir tempDewpointWater temp
2016-Sep-17 09:06N 43°08' E 005°01'814.0
2016-Sep-17 08:33N 43°16' E 004°60'1110.5
2016-Sep-17 07:32N 43°25' E 004°51'174 5.3
2016-Sep-15 22:32N 41°18' E 002°09'42 3.8
2016-Sep-15 11:24N 40°43' E 001°38'10214.1
2016-Sep-15 04:11N 39°35' W 000°02'914.2
2016-Sep-15 03:34N 39°29' W 000°11'7 1.5
2016-Sep-14 22:31N 39°26' W 000°20'0 0.0
2016-Sep-14 21:31N 39°26' W 000°20'0 0.0
2016-Sep-14 17:31N 39°26' W 000°20'0 0.0
2016-Sep-14 16:31N 39°26' W 000°20'1 0.2
2016-Sep-14 13:33N 39°26' W 000°19'3 1.0
2016-Sep-14 10:33N 39°24' W 000°16'0 0.0
2016-Sep-14 08:24N 39°24' W 000°16'0 0.0
2016-Sep-14 07:27N 39°24' W 000°16'3 0.2
2016-Sep-13 20:33N 39°26' W 000°18'1 0.3
2016-Sep-13 18:29N 39°26' W 000°19'0 0.0
2016-Sep-13 17:29N 39°26' W 000°19'0 0.0
2016-Sep-13 16:32N 39°26' W 000°19'0 0.0
2016-Sep-13 11:32N 39°26' W 000°19'0 0.0
2016-Sep-13 09:32N 39°26' W 000°19'0 0.0
2016-Sep-13 07:32N 39°26' W 000°19'0 0.0
2016-Sep-13 06:32N 39°26' W 000°19'0 0.0
2016-Sep-13 04:32N 39°26' W 000°19'8 4.0
2016-Sep-13 02:34N 39°23' W 000°10'12310.2
2016-Sep-12 14:33N 38°14' E 002°01'3114.0
2016-Sep-12 12:18N 37°58' E 002°35'  

Dump ship's entire track history